Time;durP1;ratioP1;P1;durP2;ratioP2;P2;SDS_P1;SDS_P2;PMS_P1;PMS_P2;Temp;Humidity;BMP_temperature;BMP_pressure;BME280_temperature;BME280_humidity;BME280_pressure;Samples;Min_cycle;Max_cycle;Signal;HPM_P1;HPM_P2
2021/09/12 00:00:43;;;;;;;;;9.25;8.50;;;;;20.34;49.76;101196.34;5075436;28;45766;-79
2021/09/12 00:03:08;;;;;;;;;8.75;8.00;;;;;20.37;49.39;101201.34;5076231;28;45652;-80
2021/09/12 00:05:34;;;;;;;;;8.25;8.25;;;;;20.27;49.59;101189.13;5076747;27;45514;-82
2021/09/12 00:08:00;;;;;;;;;9.00;8.50;;;;;20.31;49.81;101195.78;5076202;27;45842;-81
2021/09/12 00:10:26;;;;;;;;;9.50;7.50;;;;;20.05;50.13;101170.03;5077930;27;46065;-83
2021/09/12 00:12:52;;;;;;;;;8.25;7.00;;;;;20.25;50.15;101201.75;5077811;27;45451;-80
2021/09/12 00:15:18;;;;;;;;;8.50;7.25;;;;;20.17;50.26;101194.56;5076642;27;45475;-79
2021/09/12 00:17:43;;;;;;;;;7.75;7.75;;;;;20.07;50.57;101184.03;5075951;27;45773;-81
2021/09/12 00:20:10;;;;;;;;;7.00;7.00;;;;;20.04;50.25;101184.31;5076089;27;46169;-82
2021/09/12 00:22:35;;;;;;;;;7.75;7.50;;;;;19.97;50.29;101175.28;5076048;27;45634;-82
2021/09/12 00:25:02;;;;;;;;;8.50;7.00;;;;;20.07;50.70;101193.81;5075692;27;45852;-80
2021/09/12 00:30:49;;;;;;;;;7.50;7.00;;;;;19.89;50.41;101183.22;5075442;28;45665;-79
2021/09/12 00:33:15;;;;;;;;;8.00;7.75;;;;;20.04;50.41;101191.47;5076155;28;45662;-83
2021/09/12 00:35:40;;;;;;;;;6.25;6.00;;;;;20.03;50.85;101197.78;5075031;28;45787;-79
2021/09/12 00:38:08;;;;;;;;;8.00;8.00;;;;;19.96;50.86;101186.09;5075359;27;45563;-82
2021/09/12 00:40:33;;;;;;;;;7.00;7.00;;;;;19.99;50.98;101199.91;5075334;28;46161;-79
2021/09/12 00:46:20;;;;;;;;;10.00;9.00;;;;;19.93;50.96;101191.72;5075697;28;45511;-83
2021/09/12 00:48:46;;;;;;;;;9.50;8.00;;;;;19.86;51.12;101185.38;5075530;28;45593;-81
2021/09/12 00:51:11;;;;;;;;;7.75;6.75;;;;;19.86;50.97;101196.84;5074403;28;46324;-79
2021/09/12 00:53:37;;;;;;;;;7.00;6.25;;;;;19.83;51.26;101197.13;5075378;27;45748;-79
2021/09/12 00:56:04;;;;;;;;;11.00;9.75;;;;;19.69;51.37;101171.09;5081313;27;45582;-80
2021/09/12 00:58:31;;;;;;;;;10.00;7.00;;;;;19.74;51.41;101197.22;5082616;27;46395;-80
2021/09/12 01:00:57;;;;;;;;;8.00;7.50;;;;;19.62;51.04;101186.84;5081559;27;45542;-78
2021/09/12 01:03:23;;;;;;;;;7.75;7.75;;;;;19.64;50.90;101197.31;5079671;27;45753;-78
2021/09/12 01:05:49;;;;;;;;;9.25;7.75;;;;;19.59;51.28;101192.47;5075786;27;46128;-82
2021/09/12 01:08:14;;;;;;;;;10.50;8.25;;;;;19.47;51.26;101175.06;5074912;27;45577;-83
2021/09/12 01:10:41;;;;;;;;;8.00;7.75;;;;;19.36;51.15;101163.78;5074907;27;45654;-79
2021/09/12 01:16:28;;;;;;;;;9.75;8.75;;;;;19.43;51.48;101189.63;5075034;28;45549;-82
2021/09/12 01:18:53;;;;;;;;;10.50;9.25;;;;;19.25;51.32;101152.41;5075285;28;45887;-79
2021/09/12 01:21:21;;;;;;;;;8.75;7.75;;;;;19.34;51.52;101157.78;5074624;27;46012;-82
2021/09/12 01:23:48;;;;;;;;;11.25;9.75;;;;;19.42;51.44;101174.66;5074127;28;45757;-82
2021/09/12 01:26:19;;;;;;;;;10.50;10.50;;;;;19.41;51.97;101175.66;5075060;27;45647;-80
2021/09/12 01:28:44;;;;;;;;;10.50;9.50;;;;;19.40;51.89;101176.63;5074748;27;45540;-79
2021/09/12 01:31:20;;;;;;;;;10.50;10.00;;;;;19.38;51.79;101172.47;5074877;27;46291;-79
2021/09/12 01:33:45;;;;;;;;;11.25;9.25;;;;;19.26;51.92;101156.75;5074873;27;45675;-80
2021/09/12 01:36:11;;;;;;;;;9.75;9.75;;;;;19.34;51.88;101179.06;5074652;27;45568;-80
2021/09/12 01:38:36;;;;;;;;;10.00;10.00;;;;;19.29;51.90;101175.03;5074712;27;46712;-82
2021/09/12 01:41:01;;;;;;;;;10.75;8.50;;;;;19.26;52.22;101169.19;5074848;27;45585;-79
2021/09/12 01:46:48;;;;;;;;;11.00;10.00;;;;;19.18;52.32;101177.06;5074094;28;45831;-80
2021/09/12 01:49:15;;;;;;;;;10.00;9.50;;;;;19.13;52.80;101166.91;5074567;27;46391;-81
2021/09/12 01:51:40;;;;;;;;;10.25;9.75;;;;;19.00;52.41;101147.81;5074636;28;46651;-81
2021/09/12 01:54:06;;;;;;;;;10.25;10.25;;;;;19.11;52.41;101165.41;5074297;27;45613;-80
2021/09/12 01:56:33;;;;;;;;;11.75;9.75;;;;;19.11;52.26;101174.16;5076633;27;45592;-79
2021/09/12 01:58:58;;;;;;;;;11.25;10.50;;;;;19.02;52.73;101151.19;5077811;28;46386;-81
2021/09/12 02:01:23;;;;;;;;;9.50;9.00;;;;;19.10;52.89;101169.03;5075459;27;45525;-81
2021/09/12 02:03:49;;;;;;;;;10.25;10.25;;;;;19.09;52.90;101164.69;5078257;27;45656;-79
2021/09/12 02:06:14;;;;;;;;;11.50;10.50;;;;;19.08;52.84;101168.34;5077831;27;45854;-79
2021/09/12 02:08:40;;;;;;;;;11.50;9.25;;;;;18.99;52.75;101146.19;5077572;28;46458;-78
2021/09/12 02:11:05;;;;;;;;;10.50;9.50;;;;;19.07;52.57;101164.00;5077877;27;46070;-79
2021/09/12 02:16:52;;;;;;;;;9.75;8.50;;;;;19.04;52.67;101167.81;5077169;28;45599;-80
2021/09/12 02:19:18;;;;;;;;;12.00;11.25;;;;;19.03;52.71;101176.75;5077234;28;46206;-78
2021/09/12 02:21:43;;;;;;;;;10.00;9.00;;;;;18.98;52.91;101164.91;5077172;27;46159;-80
2021/09/12 02:24:09;;;;;;;;;11.50;11.25;;;;;18.88;52.99;101157.00;5077456;27;45549;-80
2021/09/12 02:26:34;;;;;;;;;12.50;10.00;;;;;18.95;53.34;101174.00;5077420;28;45676;-81
2021/09/12 02:32:21;;;;;;;;;10.50;9.75;;;;;18.97;53.21;101179.16;5076922;28;46049;-79
2021/09/12 02:34:47;;;;;;;;;10.50;10.50;;;;;18.96;53.62;101177.50;5077368;27;45620;-79
2021/09/12 02:37:12;;;;;;;;;10.75;9.25;;;;;18.96;53.13;101186.28;5078517;27;45703;-82
2021/09/12 02:39:37;;;;;;;;;12.25;10.50;;;;;18.97;53.71;101184.47;5078287;27;45531;-79
2021/09/12 02:42:03;;;;;;;;;10.00;10.00;;;;;18.96;53.28;101198.72;5078592;27;45695;-78
2021/09/12 02:44:28;;;;;;;;;11.50;9.50;;;;;18.95;53.16;101197.09;5080636;27;45612;-78
2021/09/12 02:46:54;;;;;;;;;12.75;10.25;;;;;18.90;53.32;101184.22;5077391;27;45934;-78
2021/09/12 02:49:19;;;;;;;;;9.75;8.25;;;;;18.88;53.94;101174.75;5076907;27;46397;-78
2021/09/12 02:51:44;;;;;;;;;10.00;8.75;;;;;18.82;53.51;101177.03;5076632;27;46173;-78
2021/09/12 02:54:10;;;;;;;;;10.75;10.25;;;;;18.82;53.93;101171.72;5076550;27;45741;-79
2021/09/12 02:56:35;;;;;;;;;9.25;8.75;;;;;18.82;53.50;101169.06;5076922;27;45719;-78
2021/09/12 03:02:23;;;;;;;;;12.00;9.75;;;;;18.78;53.69;101167.69;5067855;28;45928;-79
2021/09/12 03:04:48;;;;;;;;;10.00;10.00;;;;;18.58;53.96;101149.34;5076744;27;45617;-79
2021/09/12 03:07:14;;;;;;;;;13.25;9.75;;;;;18.72;53.59;101170.94;5076275;27;45521;-80
2021/09/12 03:09:39;;;;;;;;;10.25;10.00;;;;;18.69;53.85;101179.19;5076799;27;45601;-80
2021/09/12 03:12:05;;;;;;;;;8.50;7.75;;;;;18.65;53.66;101174.31;5076890;27;45546;-80
2021/09/12 03:17:52;;;;;;;;;8.75;8.75;;;;;18.54;53.81;101166.50;5076557;28;45663;-76
2021/09/12 03:20:18;;;;;;;;;9.50;8.00;;;;;18.54;54.11;101171.81;5076566;27;46585;-79
2021/09/12 03:22:43;;;;;;;;;12.25;11.50;;;;;18.45;54.46;101162.94;5076867;27;46154;-78
2021/09/12 03:25:09;;;;;;;;;11.50;9.00;;;;;18.44;54.14;101167.41;5077252;27;45653;-77
2021/09/12 03:27:35;;;;;;;;;9.00;8.00;;;;;18.45;54.36;101182.34;5076759;27;45934;-78
2021/09/12 03:30:00;;;;;;;;;9.75;9.00;;;;;18.44;54.06;101174.53;5076265;27;46463;-79
2021/09/12 03:32:26;;;;;;;;;7.00;7.00;;;;;18.32;54.07;101157.09;5076559;27;45456;-78
2021/09/12 03:34:51;;;;;;;;;8.25;7.50;;;;;18.40;54.68;101173.97;5075502;28;45682;-78
2021/09/12 03:37:16;;;;;;;;;10.00;9.00;;;;;18.19;54.31;101138.03;5076332;27;45560;-76
2021/09/12 03:39:42;;;;;;;;;10.25;10.00;;;;;18.38;54.73;101169.78;5076108;27;46609;-77
2021/09/12 03:42:07;;;;;;;;;9.25;9.00;;;;;18.38;54.23;101175.94;5076176;27;45605;-80
2021/09/12 03:47:54;;;;;;;;;8.75;8.75;;;;;18.34;54.40;101171.91;5075820;28;45561;-80
2021/09/12 03:50:20;;;;;;;;;8.00;7.75;;;;;18.22;54.53;101154.50;5076064;27;45664;-79
2021/09/12 03:52:45;;;;;;;;;9.00;8.75;;;;;18.21;54.96;101139.56;5075969;27;45490;-80
2021/09/12 03:55:11;;;;;;;;;9.75;8.75;;;;;18.31;54.97;101161.56;5075643;27;45594;-77
2021/09/12 03:57:37;;;;;;;;;8.00;8.00;;;;;18.29;55.18;101168.03;5076056;27;45518;-77
2021/09/12 04:03:24;;;;;;;;;9.00;8.00;;;;;18.24;54.80;101162.31;5065442;28;45930;-78
2021/09/12 04:05:49;;;;;;;;;9.50;9.00;;;;;18.25;54.99;101161.31;5076117;27;46064;-80
2021/09/12 04:08:15;;;;;;;;;9.00;9.00;;;;;18.18;55.33;101144.31;5076373;27;45504;-78
2021/09/12 04:10:40;;;;;;;;;9.00;9.00;;;;;18.22;55.24;101162.44;5075985;27;47519;-79
2021/09/12 04:13:05;;;;;;;;;8.25;7.50;;;;;18.21;54.74;101151.97;5075569;27;46175;-79
2021/09/12 04:15:31;;;;;;;;;9.25;9.25;;;;;18.11;55.44;101141.41;5075787;27;45668;-79
2021/09/12 04:17:56;;;;;;;;;7.75;7.75;;;;;18.16;54.89;101147.09;5075750;27;45707;-79
2021/09/12 04:20:22;;;;;;;;;10.00;8.00;;;;;18.12;55.34;101151.03;5075283;27;47463;-81
2021/09/12 04:22:47;;;;;;;;;11.00;9.00;;;;;18.14;55.56;101154.38;5076974;27;45582;-78
2021/09/12 04:25:13;;;;;;;;;10.00;9.00;;;;;18.14;54.98;101149.06;5083031;27;45439;-79
2021/09/12 04:27:38;;;;;;;;;7.25;7.00;;;;;18.08;55.44;101141.72;5084326;27;46013;-79
2021/09/12 04:33:25;;;;;;;;;9.00;9.00;;;;;18.12;55.03;101155.50;5075512;28;46018;-79
2021/09/12 04:35:51;;;;;;;;;7.75;7.75;;;;;18.11;55.03;101156.47;5075719;27;45644;-80
2021/09/12 04:38:16;;;;;;;;;11.75;9.25;;;;;18.08;55.11;101149.66;5075636;27;45514;-80
2021/09/12 04:40:42;;;;;;;;;9.25;7.25;;;;;18.10;55.74;101160.94;5075137;27;47029;-80
2021/09/12 04:43:07;;;;;;;;;8.00;8.00;;;;;18.03;55.67;101144.75;5075144;27;46398;-79
2021/09/12 04:48:54;;;;;;;;;8.50;8.25;;;;;18.06;55.95;101156.91;5075280;28;45472;-80
2021/09/12 04:51:20;;;;;;;;;9.25;8.50;;;;;18.02;55.51;101152.88;5075183;27;46586;-80
2021/09/12 04:53:46;;;;;;;;;26.75;25.25;;;;;18.03;55.87;101160.69;5074953;27;47061;-78
2021/09/12 04:56:11;;;;;;;;;9.50;8.50;;;;;18.03;55.70;101160.69;5074893;27;45462;-77
2021/09/12 04:58:36;;;;;;;;;13.00;12.00;;;;;18.00;55.58;101157.47;5075608;27;45518;-80
2021/09/12 05:01:03;;;;;;;;;9.25;8.00;;;;;18.01;55.67;101156.50;5075010;27;46362;-79
2021/09/12 05:03:29;;;;;;;;;8.50;8.00;;;;;18.00;55.94;101152.19;5074517;27;46126;-79
2021/09/12 05:05:54;;;;;;;;;8.75;8.75;;;;;17.99;55.70;101167.25;5074784;27;45728;-82
2021/09/12 05:08:20;;;;;;;;;8.25;7.00;;;;;17.88;56.12;101145.38;5075094;27;45632;-81
2021/09/12 05:10:45;;;;;;;;;9.75;8.75;;;;;17.68;55.76;101115.41;5075225;27;45666;-80
2021/09/12 05:13:10;;;;;;;;;9.50;7.50;;;;;17.96;56.04;101164.91;5074826;27;45868;-79
2021/09/12 05:18:57;;;;;;;;;10.00;9.00;;;;;17.91;56.38;101153.06;5074745;28;45604;-78
2021/09/12 05:21:23;;;;;;;;;8.75;8.50;;;;;17.89;55.71;101145.22;5074553;27;45700;-79
2021/09/12 05:23:48;;;;;;;;;9.75;9.00;;;;;17.90;55.78;101146.06;5074366;27;47177;-78
2021/09/12 05:26:14;;;;;;;;;10.25;9.00;;;;;17.98;55.95;101164.72;5074590;27;45546;-80
2021/09/12 05:35:04;;;;;;;;;54.00;44.00;;;;;17.96;55.87;101162.25;5077918;28;45671;-79
2021/09/12 05:37:29;;;;;;;;;10.25;9.50;;;;;17.95;56.28;101163.22;5078181;27;45738;-80
2021/09/12 05:39:55;;;;;;;;;11.00;9.50;;;;;17.92;56.23;101152.06;5078164;27;45937;-79
2021/09/12 05:42:21;;;;;;;;;7.00;7.00;;;;;17.95;56.53;101160.56;5078241;28;46506;-82
2021/09/12 05:44:47;;;;;;;;;8.00;7.75;;;;;17.93;56.58;101164.31;5078443;27;46200;-80
2021/09/12 05:47:12;;;;;;;;;9.00;8.75;;;;;17.93;56.54;101159.03;5077723;27;45609;-79
2021/09/12 05:49:38;;;;;;;;;9.00;8.75;;;;;17.92;56.24;101160.84;5078807;27;45577;-80
2021/09/12 05:52:03;;;;;;;;;8.25;8.00;;;;;17.79;56.28;101141.75;5078002;27;46321;-82
2021/09/12 05:54:29;;;;;;;;;10.25;9.00;;;;;17.87;56.19;101156.94;5077800;27;45930;-76
2021/09/12 05:56:54;;;;;;;;;12.25;9.75;;;;;17.84;56.64;101152.78;5077836;27;45674;-77
2021/09/12 05:59:20;;;;;;;;;10.50;9.00;;;;;17.91;56.60;101166.31;5078182;27;45592;-79
2021/09/12 06:01:45;;;;;;;;;9.75;9.00;;;;;17.88;56.49;101166.56;5077724;27;45651;-77
2021/09/12 06:04:11;;;;;;;;;10.75;9.00;;;;;17.88;56.54;101172.72;5081753;28;45659;-78
2021/09/12 06:06:36;;;;;;;;;11.00;10.25;;;;;17.85;56.75;101166.88;5084430;27;45605;-81
2021/09/12 06:09:02;;;;;;;;;10.00;9.50;;;;;17.73;56.85;101150.28;5081424;27;45544;-78
2021/09/12 06:11:27;;;;;;;;;10.00;9.25;;;;;17.76;56.60;101160.59;5083138;28;45631;-79
2021/09/12 06:13:52;;;;;;;;;11.00;9.75;;;;;17.85;57.06;101183.63;5082917;27;46480;-79
2021/09/12 06:19:39;;;;;;;;;8.25;8.25;;;;;17.79;57.20;101178.03;5078581;28;45636;-82
2021/09/12 06:22:06;;;;;;;;;9.75;8.75;;;;;17.76;57.17;101178.34;5078622;27;45587;-80
2021/09/12 06:24:32;;;;;;;;;10.75;10.25;;;;;17.75;57.30;101187.25;5077096;27;46041;-80
2021/09/12 06:26:58;;;;;;;;;10.25;9.50;;;;;17.72;57.55;101180.41;5077727;27;45543;-79
2021/09/12 06:29:24;;;;;;;;;10.00;9.25;;;;;17.60;57.62;101171.75;5078109;27;45771;-80
2021/09/12 06:31:50;;;;;;;;;10.00;9.50;;;;;17.66;57.34;101183.63;5077564;27;46624;-80
2021/09/12 06:34:16;;;;;;;;;13.25;12.00;;;;;17.67;57.66;101187.09;5077539;28;46137;-78
2021/09/12 06:36:41;;;;;;;;;12.25;11.00;;;;;17.67;57.64;101180.00;5077120;28;45688;-79
2021/09/12 06:39:06;;;;;;;;;8.00;7.50;;;;;17.67;57.61;101177.34;5077699;27;45654;-82
2021/09/12 06:41:32;;;;;;;;;17.00;15.25;;;;;17.68;57.30;101179.03;5076924;27;45609;-83
2021/09/12 06:43:57;;;;;;;;;11.75;11.25;;;;;17.70;57.75;101187.69;5076547;27;45596;-80
2021/09/12 06:49:44;;;;;;;;;17.25;14.75;;;;;17.68;57.44;101181.69;5076684;28;45623;-80
2021/09/12 06:52:09;;;;;;;;;12.00;11.50;;;;;17.73;57.80;101183.91;5076656;27;45758;-79
2021/09/12 06:54:35;;;;;;;;;12.75;11.00;;;;;17.73;57.42;101179.44;5076634;27;46032;-82
2021/09/12 06:57:00;;;;;;;;;13.25;13.00;;;;;17.71;57.53;101167.28;5076258;27;45602;-81
2021/09/12 06:59:26;;;;;;;;;11.75;11.00;;;;;17.80;57.29;101183.22;5075180;28;45736;-83
2021/09/12 07:05:26;;;;;;;;;15.50;14.25;;;;;17.76;57.93;101157.94;5067322;28;45891;-81
2021/09/12 07:07:51;;;;;;;;;12.00;12.00;;;;;17.90;57.90;101180.53;5076624;27;45629;-79
2021/09/12 07:10:18;;;;;;;;;11.75;11.00;;;;;17.93;57.94;101174.94;5076831;27;45640;-80
2021/09/12 07:12:44;;;;;;;;;12.75;11.75;;;;;17.79;57.70;101148.88;5076725;27;47380;-79
2021/09/12 07:15:10;;;;;;;;;12.50;11.50;;;;;17.94;57.88;101176.59;5076513;27;46233;-80
2021/09/12 07:17:36;;;;;;;;;10.00;10.00;;;;;18.04;57.69;101180.06;5076260;28;45590;-80
2021/09/12 07:20:01;;;;;;;;;13.00;11.25;;;;;18.08;57.66;101178.00;5076708;28;45534;-79
2021/09/12 07:22:27;;;;;;;;;13.00;11.50;;;;;18.08;57.81;101170.88;5076595;27;45822;-80
2021/09/12 07:24:52;;;;;;;;;11.50;10.25;;;;;18.13;57.35;101181.88;5076194;27;45560;-79
2021/09/12 07:27:18;;;;;;;;;12.00;10.00;;;;;18.07;57.61;101166.53;5075869;27;45612;-79
2021/09/12 07:29:43;;;;;;;;;11.75;10.50;;;;;18.24;57.37;101183.53;5075165;28;45584;-80
2021/09/12 07:35:30;;;;;;;;;9.00;8.50;;;;;18.29;57.25;101181.28;5075778;28;45956;-83
2021/09/12 07:37:56;;;;;;;;;10.50;10.25;;;;;18.15;57.27;101156.03;5075778;27;45703;-81
2021/09/12 07:40:21;;;;;;;;;12.75;10.00;;;;;18.35;57.67;101181.50;5077673;27;45553;-81
2021/09/12 07:42:48;;;;;;;;;9.00;8.50;;;;;18.31;57.19;101166.88;5076122;28;48570;-87
2021/09/12 07:45:14;;;;;;;;;0.25;0.00;;;;;18.37;57.25;101170.75;5078910;27;45806;-86
2021/09/12 07:51:02;;;;;;;;;10.25;9.75;;;;;18.24;57.46;101136.63;5079354;28;45663;-84
2021/09/12 07:53:28;;;;;;;;;9.50;9.50;;;;;18.55;57.50;101184.97;5081195;28;45645;-82
2021/09/12 07:55:53;;;;;;;;;10.75;10.25;;;;;18.48;56.97;101161.78;5080615;28;46008;-87
2021/09/12 07:58:18;;;;;;;;;10.50;10.25;;;;;18.65;57.09;101200.84;5082530;27;45514;-82
2021/09/12 08:00:44;;;;;;;;;11.50;10.50;;;;;18.42;56.91;101141.97;5080101;27;45769;-81
2021/09/12 08:03:09;;;;;;;;;11.00;9.25;;;;;18.64;56.90;101183.25;5080489;27;45547;-82
2021/09/12 08:05:34;;;;;;;;;11.00;9.75;;;;;18.77;56.88;101189.91;5080321;27;45537;-81
2021/09/12 08:08:00;;;;;;;;;9.25;8.75;;;;;18.82;56.68;101186.81;5081059;28;45677;-83
2021/09/12 08:10:25;;;;;;;;;9.25;9.00;;;;;18.70;56.54;101161.44;5087253;27;45498;-82
2021/09/12 08:12:51;;;;;;;;;10.25;7.50;;;;;18.93;56.88;101188.44;5088112;27;46451;-85
2021/09/12 08:15:16;;;;;;;;;9.75;8.00;;;;;18.98;56.34;101188.81;5102657;27;47448;-81
2021/09/12 08:21:03;;;;;;;;;7.00;7.00;;;;;19.08;56.52;101203.69;5080024;28;45595;-84
2021/09/12 08:23:30;;;;;;;;;8.00;7.25;;;;;19.10;55.57;101199.09;5076453;28;47202;-85
2021/09/12 08:25:56;;;;;;;;;5.25;4.50;;;;;19.13;55.75;101195.28;5076406;27;45502;-81
2021/09/12 08:28:21;;;;;;;;;5.00;5.00;;;;;18.87;55.41;101150.03;5077132;27;45527;-74
2021/09/12 08:30:46;;;;;;;;;4.00;4.00;;;;;19.16;55.00;101203.78;5076623;27;45692;-76
2021/09/12 08:33:14;;;;;;;;;6.00;5.00;;;;;19.22;54.83;101197.03;5075541;27;46667;-78
2021/09/12 08:35:40;;;;;;;;;6.75;6.50;;;;;19.21;54.94;101192.72;5075126;27;45857;-75
2021/09/12 08:38:06;;;;;;;;;6.00;5.75;;;;;19.28;54.98;101193.78;5074891;27;45578;-76
2021/09/12 08:40:31;;;;;;;;;7.50;6.50;;;;;19.32;54.75;101187.19;5074992;27;45593;-76
2021/09/12 08:42:58;;;;;;;;;5.25;4.25;;;;;19.38;54.66;101189.22;5074627;27;46508;-78
2021/09/12 08:45:25;;;;;;;;;6.00;5.75;;;;;19.40;54.29;101189.06;5074615;27;46392;-74
2021/09/12 08:51:12;;;;;;;;;4.75;4.25;;;;;19.52;54.31;101187.91;5074716;28;45613;-77
2021/09/12 08:53:37;;;;;;;;;5.50;5.50;;;;;19.53;54.26;101186.91;5074837;28;46354;-77
2021/09/12 08:56:03;;;;;;;;;5.50;5.50;;;;;19.54;54.02;101183.28;5074711;27;45997;-78
2021/09/12 08:58:28;;;;;;;;;5.25;4.00;;;;;19.62;54.02;101183.34;5074888;28;45584;-76
2021/09/12 09:01:00;;;;;;;;;5.75;5.75;;;;;19.68;53.60;101180.91;5075029;27;45644;-77
2021/09/12 09:06:58;;;;;;;;;4.75;4.50;;;;;19.75;53.50;101178.47;5063577;28;45868;-77
2021/09/12 09:09:37;;;;;;;;;5.25;4.50;;;;;19.80;53.35;101180.66;5074705;27;45931;-76
2021/09/12 09:12:19;;;;;;;;;5.25;4.25;;;;;19.81;53.17;101177.03;5074594;27;45664;-78
2021/09/12 09:14:44;;;;;;;;;5.00;5.00;;;;;19.82;52.89;101165.38;5075248;27;46600;-74
2021/09/12 09:17:19;;;;;;;;;5.00;4.00;;;;;19.88;52.92;101181.53;5074957;27;45859;-76
2021/09/12 09:19:55;;;;;;;;;5.00;4.00;;;;;19.92;53.09;101182.91;5075098;27;45624;-75
2021/09/12 09:22:32;;;;;;;;;4.00;2.75;;;;;19.97;52.43;101191.25;5075309;27;45785;-78
2021/09/12 09:25:09;;;;;;;;;4.00;4.00;;;;;20.02;52.31;101188.13;5091578;27;47472;-77
2021/09/12 09:27:55;;;;;;;;;4.00;4.00;;;;;20.07;52.61;101186.69;5075449;27;45463;-77
2021/09/12 09:30:22;;;;;;;;;3.00;3.00;;;;;20.10;52.55;101178.38;5074741;27;45628;-78
2021/09/12 09:32:47;;;;;;;;;4.00;3.00;;;;;20.16;52.29;101186.72;5074560;27;45463;-78
2021/09/12 09:35:19;;;;;;;;;5.50;4.00;;;;;20.19;51.99;101191.75;5073997;27;47505;-77
2021/09/12 09:37:48;;;;;;;;;3.25;3.00;;;;;20.25;51.70;101185.78;5074043;27;46227;-79
2021/09/12 09:40:14;;;;;;;;;3.50;3.50;;;;;20.29;51.43;101189.81;5074407;28;45667;-79
2021/09/12 09:42:41;;;;;;;;;2.75;2.75;;;;;20.32;51.71;101190.34;5074315;28;45660;-76
2021/09/12 09:45:19;;;;;;;;;4.75;4.00;;;;;20.35;51.49;101187.34;5074595;27;46787;-78
2021/09/12 09:47:47;;;;;;;;;4.50;4.25;;;;;20.40;51.60;101192.25;5074446;27;45485;-79
2021/09/12 09:50:17;;;;;;;;;5.00;4.00;;;;;20.44;51.19;101181.09;5074647;27;45689;-79
2021/09/12 09:52:52;;;;;;;;;3.50;3.25;;;;;20.47;51.36;101183.44;5077351;27;45729;-77
2021/09/12 09:55:21;;;;;;;;;3.00;3.00;;;;;20.48;51.36;101177.13;5077042;27;46762;-77
2021/09/12 09:57:48;;;;;;;;;5.00;5.00;;;;;20.53;51.09;101182.81;5075165;28;46068;-74
2021/09/12 10:00:15;;;;;;;;;4.25;4.00;;;;;20.53;50.94;101173.97;5074516;28;45663;-77
2021/09/12 10:02:41;;;;;;;;;4.50;4.00;;;;;20.58;50.92;101176.16;5074503;27;45631;-75
2021/09/12 10:05:09;;;;;;;;;5.00;3.25;;;;;20.53;50.87;101163.34;5074519;27;45618;-74
2021/09/12 10:07:36;;;;;;;;;4.50;4.00;;;;;20.63;50.92;101182.69;5074028;27;47307;-75
2021/09/12 10:10:08;;;;;;;;;4.25;4.25;;;;;20.61;50.83;101166.03;5074143;27;45657;-76
2021/09/12 10:12:54;;;;;;;;;5.00;5.00;;;;;20.69;50.73;101163.41;5074578;27;45769;-77
2021/09/12 10:15:25;;;;;;;;;3.25;3.00;;;;;20.73;50.79;101166.59;5074138;28;46803;-77
2021/09/12 10:17:51;;;;;;;;;5.00;4.25;;;;;20.75;50.57;101161.91;5076969;27;45886;-77
2021/09/12 10:20:23;;;;;;;;;6.00;6.00;;;;;20.75;50.63;101154.78;5077847;27;45754;-77
2021/09/12 10:22:56;;;;;;;;;5.00;4.75;;;;;20.80;50.17;101155.13;5077919;27;45905;-76
2021/09/12 10:25:25;;;;;;;;;3.50;3.00;;;;;20.83;49.79;101159.31;5077297;28;46497;-75
2021/09/12 10:27:58;;;;;;;;;5.00;4.00;;;;;20.85;50.44;101158.13;5077107;27;47104;-77
2021/09/12 10:30:36;;;;;;;;;5.00;5.00;;;;;20.86;50.08;101154.47;5077493;27;45481;-76
2021/09/12 10:33:04;;;;;;;;;5.75;5.00;;;;;20.90;49.63;101161.13;5077601;27;45720;-76
2021/09/12 10:35:38;;;;;;;;;4.75;4.00;;;;;20.93;49.80;101152.84;5077232;28;46436;-77
2021/09/12 10:38:04;;;;;;;;;6.00;6.00;;;;;20.96;49.94;101154.31;5077290;27;46165;-77
2021/09/12 10:40:48;;;;;;;;;6.00;5.50;;;;;20.97;49.80;101148.00;5077384;27;45760;-76
2021/09/12 10:43:26;;;;;;;;;5.00;5.00;;;;;20.99;49.57;101147.84;5077710;28;45893;-77
2021/09/12 10:46:03;;;;;;;;;4.25;4.25;;;;;21.00;49.54;101147.66;5077091;27;46768;-76
2021/09/12 10:48:28;;;;;;;;;5.00;5.00;;;;;21.03;49.92;101144.69;5076993;27;45956;-76
2021/09/12 10:50:54;;;;;;;;;6.00;5.00;;;;;21.02;49.27;101142.19;5076934;27;45510;-77
2021/09/12 10:53:48;;;;;;;;;6.00;4.75;;;;;21.06;49.36;101147.00;5077348;27;45709;-75
2021/09/12 10:56:19;;;;;;;;;5.00;5.00;;;;;21.09;49.36;101148.53;5076705;28;46954;-77
2021/09/12 10:58:50;;;;;;;;;7.00;6.25;;;;;21.10;49.10;101148.38;5076647;27;45828;-78
2021/09/12 11:01:40;;;;;;;;;4.25;4.00;;;;;21.14;49.51;101147.06;5076735;27;45692;-78
2021/09/12 11:04:06;;;;;;;;;6.25;5.00;;;;;21.18;49.37;101152.91;5078889;27;45619;-76
2021/09/12 11:06:35;;;;;;;;;5.75;5.25;;;;;21.22;49.09;101140.91;5079853;27;45700;-75
2021/09/12 11:09:03;;;;;;;;;7.50;6.00;;;;;21.25;49.26;101145.91;5077543;28;46300;-74
2021/09/12 11:11:30;;;;;;;;;5.25;5.25;;;;;21.27;49.11;101130.56;5077310;28;45754;-76
2021/09/12 11:13:57;;;;;;;;;6.00;5.75;;;;;21.28;49.41;101127.75;5077682;27;45578;-77
2021/09/12 11:16:25;;;;;;;;;5.00;5.00;;;;;21.36;49.10;101137.59;5076051;28;46750;-77
2021/09/12 11:18:58;;;;;;;;;5.75;5.25;;;;;21.38;49.00;101130.25;5076283;27;45902;-77
2021/09/12 11:21:28;;;;;;;;;5.50;4.75;;;;;21.46;49.01;101134.78;5076435;27;45702;-77
2021/09/12 11:24:13;;;;;;;;;4.25;4.25;;;;;21.51;48.76;101130.59;5076974;27;45506;-79
2021/09/12 11:26:57;;;;;;;;;7.00;7.00;;;;;21.54;48.95;101138.25;5076767;27;45531;-77
2021/09/12 11:29:31;;;;;;;;;7.25;6.75;;;;;21.55;48.63;101123.09;5075964;27;46302;-80
2021/09/12 11:32:10;;;;;;;;;7.25;6.75;;;;;21.57;48.73;101129.09;5076470;27;45696;-78
2021/09/12 11:34:37;;;;;;;;;5.25;5.25;;;;;21.54;48.55;101122.25;5076165;27;45866;-76
2021/09/12 11:37:11;;;;;;;;;5.50;4.25;;;;;21.62;48.33;101121.44;5076494;27;45575;-77
2021/09/12 11:39:39;;;;;;;;;5.00;5.00;;;;;21.58;48.39;101098.78;5076356;27;45699;-76
2021/09/12 11:42:07;;;;;;;;;7.50;7.00;;;;;21.70;48.86;101116.09;5076473;27;45653;-80
2021/09/12 11:44:43;;;;;;;;;6.25;6.25;;;;;21.75;48.25;101111.91;5076148;27;45875;-78
2021/09/12 11:47:14;;;;;;;;;6.75;6.75;;;;;21.82;48.76;101108.56;5075479;27;46700;-77
2021/09/12 11:49:41;;;;;;;;;4.50;4.50;;;;;21.87;48.07;101106.22;5076117;27;45958;-76
2021/09/12 11:52:08;;;;;;;;;57.75;45.75;;;;;21.91;48.19;101099.56;5076326;27;45979;-78
2021/09/12 11:54:35;;;;;;;;;9.00;8.00;;;;;21.65;47.96;101057.91;5076365;27;45628;-79
2021/09/12 11:57:16;;;;;;;;;28.75;25.50;;;;;22.04;48.56;101105.19;5075957;28;45559;-77
2021/09/12 11:59:49;;;;;;;;;21.00;17.50;;;;;22.05;48.58;101106.88;5076123;28;46056;-78
2021/09/12 12:02:20;;;;;;;;;11.00;10.50;;;;;22.06;48.09;101097.88;5075976;27;45599;-75
2021/09/12 12:04:46;;;;;;;;;7.00;6.25;;;;;22.11;47.80;101099.03;5076266;27;45810;-77
2021/09/12 12:07:11;;;;;;;;;9.75;8.25;;;;;22.11;47.41;101090.19;5075433;27;45917;-78
2021/09/12 12:09:48;;;;;;;;;9.25;9.25;;;;;22.20;47.25;101091.81;5075766;27;46194;-75
2021/09/12 12:12:19;;;;;;;;;9.50;8.75;;;;;22.24;47.75;101079.78;5075887;27;45494;-79
2021/09/12 12:14:58;;;;;;;;;8.00;7.00;;;;;22.33;47.84;101105.44;5076015;27;45620;-77
2021/09/12 12:17:25;;;;;;;;;8.75;8.00;;;;;22.38;47.24;101088.91;5075911;27;45510;-78
2021/09/12 12:19:52;;;;;;;;;6.50;6.00;;;;;22.40;47.69;101095.72;5076118;28;46136;-77
2021/09/12 12:22:21;;;;;;;;;6.00;6.00;;;;;22.41;47.01;101096.56;5076814;27;45670;-77
2021/09/12 12:24:52;;;;;;;;;7.00;6.50;;;;;22.43;46.75;101089.22;5079116;27;45697;-77
2021/09/12 12:27:18;;;;;;;;;6.50;5.25;;;;;22.52;46.86;101094.34;5080049;27;46531;-77
2021/09/12 12:30:04;;;;;;;;;8.00;7.00;;;;;22.57;46.83;101091.97;5080645;27;47176;-74
2021/09/12 12:32:31;;;;;;;;;6.00;6.00;;;;;22.60;46.84;101093.47;5081094;27;45687;-78
2021/09/12 12:35:01;;;;;;;;;5.75;5.25;;;;;22.68;47.28;101082.72;5075593;28;45614;-77
2021/09/12 12:37:42;;;;;;;;;5.50;5.50;;;;;22.72;46.80;101075.25;5075268;27;46343;-77
2021/09/12 12:40:13;;;;;;;;;8.25;6.00;;;;;22.81;47.08;101098.22;5074549;27;45920;-75